createdAt,value
2023-05-02T00:02:20.797Z,50.66
2023-05-02T00:04:47.995Z,50.57
2023-05-02T00:07:17.334Z,49.65
2023-05-02T00:09:44.488Z,48.95
2023-05-02T00:12:11.542Z,49.89
2023-05-02T00:14:38.602Z,48.87
2023-05-02T00:17:13.975Z,48.83
2023-05-02T00:19:41.223Z,48.95
2023-05-02T00:22:11.586Z,49.82
2023-05-02T00:24:39.216Z,52.84
2023-05-02T00:27:06.987Z,51.43
2023-05-02T00:29:34.332Z,50.69
2023-05-02T00:32:01.667Z,51.03
2023-05-02T00:34:32.465Z,50.32
2023-05-02T00:36:59.986Z,50.29
2023-05-02T00:39:29.468Z,49.41
2023-05-02T00:42:02.680Z,49.67
2023-05-02T00:44:31.358Z,49.48
2023-05-02T00:47:01.828Z,50.15
2023-05-02T00:49:28.967Z,48.82
2023-05-02T00:51:56.150Z,49.35
2023-05-02T00:54:23.657Z,50.01
2023-05-02T00:56:50.884Z,48.57
2023-05-02T00:59:18.736Z,47.96
2023-05-02T01:02:36.716Z,46.29
2023-05-02T01:05:21.101Z,46.80
2023-05-02T01:08:30.851Z,47.16
2023-05-02T01:11:57.262Z,46.85
2023-05-02T01:14:30.974Z,47.03
2023-05-02T01:17:04.192Z,46.61
2023-05-02T01:19:44.732Z,46.55
2023-05-02T01:22:14.394Z,47.14
2023-05-02T01:25:52.894Z,46.95
2023-05-02T01:29:04.769Z,47.54
2023-05-02T01:31:50.302Z,47.85
2023-05-02T01:34:21.360Z,48.34
2023-05-02T01:36:51.936Z,48.57
2023-05-02T01:39:22.943Z,48.73
2023-05-02T01:41:53.387Z,49.16
2023-05-02T01:44:24.242Z,46.90
2023-05-02T01:46:55.248Z,47.73
2023-05-02T01:49:25.425Z,47.24
2023-05-02T01:51:53.281Z,46.97
2023-05-02T01:54:24.154Z,47.22
2023-05-02T01:56:52.858Z,47.27
2023-05-02T01:59:23.795Z,47.50
2023-05-02T02:01:52.400Z,47.81
2023-05-02T02:04:22.059Z,47.10
2023-05-02T02:07:06.663Z,47.64
2023-05-02T02:09:34.219Z,47.32
2023-05-02T02:12:07.547Z,48.55
2023-05-02T02:14:38.734Z,47.57
2023-05-02T02:17:32.285Z,48.43
2023-05-02T02:20:05.487Z,48.66
2023-05-02T02:22:38.951Z,48.22
2023-05-02T02:25:14.369Z,49.04
2023-05-02T02:27:42.166Z,48.28
2023-05-02T02:30:10.546Z,49.63
2023-05-02T02:32:37.910Z,48.89
2023-05-02T02:35:07.061Z,50.36
2023-05-02T02:38:06.583Z,49.46
2023-05-02T02:40:55.197Z,49.50
2023-05-02T02:43:44.520Z,48.89
2023-05-02T02:46:45.086Z,49.37
2023-05-02T02:49:51.165Z,50.31
2023-05-02T02:53:06.236Z,48.81
2023-05-02T02:56:05.068Z,50.06
2023-05-02T02:59:35.540Z,50.73
2023-05-02T03:02:09.392Z,50.20
2023-05-02T03:04:44.925Z,50.06
2023-05-02T03:07:12.600Z,50.07
2023-05-02T03:09:48.445Z,51.31
2023-05-02T03:12:15.779Z,50.45
2023-05-02T03:14:43.678Z,51.84
2023-05-02T03:17:11.157Z,51.09
2023-05-02T03:19:38.320Z,49.75
2023-05-02T03:22:05.921Z,50.74
2023-05-02T03:24:33.040Z,52.21
2023-05-02T03:27:00.308Z,51.75
2023-05-02T03:29:28.682Z,51.63
2023-05-02T03:31:55.848Z,51.74
2023-05-02T03:34:23.523Z,50.67
2023-05-02T03:36:51.043Z,51.03
2023-05-02T03:39:18.224Z,51.75
2023-05-02T03:41:47.163Z,51.10
2023-05-02T03:44:14.482Z,50.10
2023-05-02T03:46:41.939Z,50.92
2023-05-02T03:49:09.453Z,51.52
2023-05-02T03:51:36.531Z,53.02
2023-05-02T03:54:04.083Z,51.81
2023-05-02T03:56:31.325Z,52.81
2023-05-02T03:58:59.816Z,53.46
2023-05-02T04:01:26.912Z,55.27
2023-05-02T04:03:54.069Z,54.34
2023-05-02T04:06:21.475Z,56.29
2023-05-02T04:08:49.898Z,54.84
2023-05-02T04:11:17.098Z,55.96
2023-05-02T04:13:47.302Z,54.21
2023-05-02T04:16:14.357Z,53.61
2023-05-02T04:18:41.605Z,55.03
2023-05-02T04:21:11.884Z,53.35
2023-05-02T04:23:39.444Z,53.39
2023-05-02T04:26:06.697Z,53.05
2023-05-02T04:28:36.278Z,51.18
2023-05-02T04:31:06.645Z,51.76
2023-05-02T04:33:33.877Z,53.34
2023-05-02T04:36:01.173Z,53.82
2023-05-02T04:38:28.227Z,52.96
2023-05-02T04:40:55.546Z,51.66
2023-05-02T04:43:24.597Z,50.96
2023-05-02T04:45:52.074Z,51.98
2023-05-02T04:48:19.239Z,51.99
2023-05-02T04:50:46.998Z,52.21
2023-05-02T04:53:15.056Z,53.44
2023-05-02T04:55:48.168Z,53.52
2023-05-02T04:58:24.762Z,53.61
2023-05-02T05:00:54.989Z,53.35
2023-05-02T05:03:22.458Z,52.35
2023-05-02T05:05:49.531Z,51.39
2023-05-02T05:08:16.793Z,52.13
2023-05-02T05:10:44.105Z,52.32
2023-05-02T05:13:12.567Z,51.17
2023-05-02T05:15:40.248Z,51.23
2023-05-02T05:18:07.587Z,51.74
2023-05-02T05:20:34.812Z,52.12
2023-05-02T05:23:02.346Z,51.14
2023-05-02T05:25:34.158Z,50.19
2023-05-02T05:28:01.623Z,49.95
2023-05-02T05:30:30.837Z,49.24
2023-05-02T05:33:01.285Z,50.35
2023-05-02T05:35:28.508Z,50.94
2023-05-02T05:37:55.625Z,52.99
2023-05-02T05:40:22.853Z,52.87
2023-05-02T05:42:49.965Z,53.39
2023-05-02T05:45:19.517Z,51.19
2023-05-02T05:47:46.713Z,52.37
2023-05-02T05:50:13.868Z,51.96
2023-05-02T05:52:41.356Z,51.27
2023-05-02T05:55:14.595Z,50.59
2023-05-02T05:57:42.299Z,49.66
2023-05-02T06:00:13.387Z,52.37
2023-05-02T06:02:40.555Z,51.04
2023-05-02T06:05:08.471Z,52.90
2023-05-02T06:07:35.646Z,52.65
2023-05-02T06:10:03.146Z,55.43
2023-05-02T06:12:31.473Z,52.74
2023-05-02T06:14:58.655Z,54.80
2023-05-02T06:17:26.859Z,55.89
2023-05-02T06:19:54.750Z,53.64
2023-05-02T06:22:21.793Z,53.66
2023-05-02T06:24:48.839Z,51.79
2023-05-02T06:27:16.444Z,51.48
2023-05-02T06:29:45.798Z,52.68
2023-05-02T06:32:13.056Z,53.91
2023-05-02T06:34:40.131Z,53.12
2023-05-02T06:37:07.281Z,52.66
2023-05-02T06:39:34.406Z,52.29
2023-05-02T06:42:01.578Z,52.33
2023-05-02T06:44:28.822Z,52.45
2023-05-02T06:46:56.321Z,55.21
2023-05-02T06:49:23.789Z,52.05
2023-05-02T06:51:50.836Z,54.59
2023-05-02T06:54:18.044Z,53.78
2023-05-02T06:56:45.400Z,51.14
2023-05-02T06:59:12.652Z,51.61
2023-05-02T07:01:39.822Z,50.82
2023-05-02T07:04:07.044Z,53.58
2023-05-02T07:06:34.239Z,51.59
2023-05-02T07:09:01.325Z,51.23
2023-05-02T07:11:28.514Z,52.05
2023-05-02T07:13:55.577Z,51.52
2023-05-02T07:16:22.757Z,51.49
2023-05-02T07:18:49.875Z,52.65
2023-05-02T07:21:19.083Z,52.88
2023-05-02T07:23:46.516Z,51.70
2023-05-02T07:26:13.723Z,50.82
2023-05-02T07:28:41.042Z,50.71
2023-05-02T07:31:08.196Z,51.20
2023-05-02T07:33:35.324Z,52.09
2023-05-02T07:36:03.231Z,52.25
2023-05-02T07:38:30.387Z,51.25
2023-05-02T07:41:01.028Z,49.05
2023-05-02T07:43:28.698Z,51.25
2023-05-02T07:45:56.485Z,50.84
2023-05-02T07:48:26.080Z,50.46
2023-05-02T07:50:57.055Z,49.91
2023-05-02T07:53:27.425Z,50.92
2023-05-02T07:55:54.476Z,49.08
2023-05-02T07:58:21.570Z,47.59
2023-05-02T08:00:48.843Z,46.62
2023-05-02T08:03:16.184Z,47.67
2023-05-02T08:05:43.716Z,45.70
2023-05-02T08:08:10.808Z,47.22
2023-05-02T08:10:37.901Z,48.90
2023-05-02T08:13:04.944Z,48.75
2023-05-02T08:15:34.019Z,49.55
2023-05-02T08:18:01.235Z,47.84
2023-05-02T08:20:28.505Z,47.20
2023-05-02T08:22:56.568Z,48.35
2023-05-02T08:25:25.080Z,48.93
2023-05-02T08:27:52.356Z,47.74
2023-05-02T08:30:19.645Z,47.89
2023-05-02T08:32:48.350Z,49.61
2023-05-02T08:35:15.595Z,50.61
2023-05-02T08:37:43.667Z,50.41
2023-05-02T08:40:14.165Z,50.48
2023-05-02T08:42:44.772Z,50.63
2023-05-02T08:45:16.564Z,49.58
2023-05-02T08:47:44.681Z,51.04
2023-05-02T08:50:12.108Z,49.48
2023-05-02T08:52:39.752Z,49.36
2023-05-02T08:55:08.064Z,48.94
2023-05-02T08:57:37.309Z,49.30
2023-05-02T09:00:05.573Z,49.13
2023-05-02T09:03:01.800Z,50.24
2023-05-02T09:05:33.487Z,47.95
2023-05-02T09:08:00.667Z,50.49
2023-05-02T09:10:30.841Z,50.61
2023-05-02T09:12:57.925Z,51.41
2023-05-02T09:15:25.333Z,48.44
2023-05-02T09:17:52.591Z,48.33
2023-05-02T09:20:19.703Z,51.52
2023-05-02T09:22:53.728Z,52.61
2023-05-02T09:25:21.535Z,53.32
2023-05-02T09:27:57.003Z,53.08
2023-05-02T09:30:26.571Z,53.77
2023-05-02T09:32:55.902Z,52.30
2023-05-02T09:35:24.095Z,51.70
2023-05-02T09:37:57.247Z,50.17
2023-05-02T09:40:25.708Z,51.25
2023-05-02T09:42:53.287Z,50.71
2023-05-02T09:45:30.133Z,49.44
2023-05-02T09:48:02.978Z,49.94
2023-05-02T09:50:38.601Z,48.77
2023-05-02T09:53:11.150Z,49.60
2023-05-02T09:55:38.429Z,49.13
2023-05-02T09:58:05.892Z,49.67
2023-05-02T10:00:45.025Z,47.73
2023-05-02T10:03:17.403Z,47.31
2023-05-02T10:05:48.998Z,48.37
2023-05-02T10:08:18.886Z,51.48
2023-05-02T10:10:58.195Z,51.35
2023-05-02T10:13:35.162Z,51.64
2023-05-02T10:16:06.442Z,55.05
2023-05-02T10:19:09.881Z,56.19
2023-05-02T10:21:39.214Z,54.87
2023-05-02T10:24:06.686Z,53.78
2023-05-02T10:26:36.203Z,53.11
2023-05-02T10:29:03.310Z,52.39
2023-05-02T10:31:34.990Z,52.70
2023-05-02T10:34:03.165Z,52.46
2023-05-02T10:36:33.576Z,53.10
2023-05-02T10:39:02.354Z,51.01
2023-05-02T10:41:33.759Z,50.99
2023-05-02T10:44:07.461Z,51.40
2023-05-02T10:46:41.482Z,52.91
2023-05-02T10:49:11.443Z,51.63
2023-05-02T10:51:43.441Z,53.56
2023-05-02T10:54:20.636Z,53.93
2023-05-02T10:57:06.412Z,54.77
2023-05-02T10:59:49.416Z,53.44
2023-05-02T11:02:27.918Z,52.23
2023-05-02T11:05:07.424Z,54.74
2023-05-02T11:07:37.509Z,53.85
2023-05-02T11:10:22.034Z,56.48
2023-05-02T11:13:01.257Z,53.18
2023-05-02T11:15:28.579Z,53.35
2023-05-02T11:18:03.056Z,53.56
2023-05-02T11:20:31.757Z,55.40
2023-05-02T11:23:26.141Z,54.51
2023-05-02T11:26:00.936Z,52.90
2023-05-02T11:28:47.595Z,52.88
2023-05-02T11:31:26.768Z,50.66
2023-05-02T11:34:03.751Z,51.85
2023-05-02T11:36:35.634Z,48.17
2023-05-02T11:39:18.185Z,47.58
2023-05-02T11:41:47.495Z,51.03
2023-05-02T11:44:14.846Z,48.71
2023-05-02T11:46:43.475Z,47.91
2023-05-02T11:49:15.225Z,45.91
2023-05-02T11:51:42.539Z,47.47
2023-05-02T11:54:10.267Z,48.46
2023-05-02T11:56:38.376Z,45.67
2023-05-02T11:59:06.418Z,45.94
2023-05-02T12:01:33.879Z,45.80
2023-05-02T12:04:08.568Z,48.57
2023-05-02T12:06:36.379Z,47.95
2023-05-02T12:09:19.273Z,45.55
2023-05-02T12:11:55.492Z,48.16
2023-05-02T12:14:30.673Z,44.63
2023-05-02T12:16:59.808Z,47.42
2023-05-02T12:19:28.055Z,44.36
2023-05-02T12:21:55.293Z,45.45
2023-05-02T12:24:24.772Z,45.01
2023-05-02T12:27:13.811Z,49.39
2023-05-02T12:29:49.160Z,46.64
2023-05-02T12:32:34.802Z,46.53
2023-05-02T12:35:04.137Z,46.52
2023-05-02T12:37:31.660Z,45.95
2023-05-02T12:39:59.386Z,47.30
2023-05-02T12:42:28.874Z,44.98
2023-05-02T12:45:02.460Z,44.41
2023-05-02T12:47:29.622Z,44.66
2023-05-02T12:49:59.584Z,45.61
2023-05-02T12:52:51.362Z,44.46
2023-05-02T12:55:25.344Z,43.51
2023-05-02T12:58:15.405Z,43.32
2023-05-02T13:00:45.605Z,44.28
2023-05-02T13:03:14.434Z,43.33
2023-05-02T13:05:41.690Z,44.37
2023-05-02T13:08:08.765Z,42.55
2023-05-02T13:10:35.926Z,43.07
2023-05-02T13:13:03.584Z,38.86
2023-05-02T13:15:30.810Z,38.52
2023-05-02T13:18:00.165Z,37.99
2023-05-02T13:20:27.574Z,39.24
2023-05-02T13:23:20.812Z,38.60
2023-05-02T13:25:48.369Z,38.76
2023-05-02T13:28:15.789Z,37.92
2023-05-02T13:30:43.473Z,42.02
2023-05-02T13:33:11.359Z,39.15
2023-05-02T13:35:38.440Z,39.61
2023-05-02T13:38:05.665Z,40.98
2023-05-02T13:40:32.914Z,40.68
2023-05-02T13:43:00.019Z,41.81
2023-05-02T13:45:27.132Z,41.91
2023-05-02T13:47:54.223Z,40.99
2023-05-02T13:50:21.475Z,43.46
2023-05-02T13:52:49.378Z,43.74
2023-05-02T13:55:17.027Z,40.41
2023-05-02T13:57:44.158Z,40.90
2023-05-02T14:00:14.996Z,40.24
2023-05-02T14:02:42.172Z,41.60
2023-05-02T14:05:13.348Z,42.45
2023-05-02T14:07:40.478Z,40.02
2023-05-02T14:10:08.986Z,42.49
2023-05-02T14:12:36.093Z,41.43
2023-05-02T14:15:03.328Z,40.69
2023-05-02T14:17:31.729Z,43.24
2023-05-02T14:19:59.382Z,41.89
2023-05-02T14:22:32.449Z,42.76
2023-05-02T14:24:59.472Z,42.69
2023-05-02T14:27:26.826Z,43.94
2023-05-02T14:29:54.047Z,43.57
2023-05-02T14:32:21.712Z,41.25
2023-05-02T14:34:48.840Z,40.87
2023-05-02T14:37:19.223Z,41.79
2023-05-02T14:39:50.832Z,40.30
2023-05-02T14:42:19.461Z,41.90
2023-05-02T14:44:46.498Z,41.38
2023-05-02T14:47:13.835Z,42.96
2023-05-02T14:49:41.036Z,41.25
2023-05-02T14:52:08.192Z,43.07
2023-05-02T14:54:36.001Z,46.14
2023-05-02T14:57:03.823Z,45.27
2023-05-02T14:59:31.530Z,46.66
2023-05-02T15:01:58.757Z,44.06
2023-05-02T15:04:28.016Z,47.45
2023-05-02T15:06:56.585Z,43.56
2023-05-02T15:09:26.536Z,42.32
2023-05-02T15:11:54.149Z,42.31
2023-05-02T15:14:21.737Z,42.94
2023-05-02T15:16:49.704Z,44.41
2023-05-02T15:19:19.472Z,45.16
2023-05-02T15:21:46.571Z,44.53
2023-05-02T15:24:13.750Z,44.02
2023-05-02T15:26:41.332Z,43.38
2023-05-02T15:29:08.624Z,43.48
2023-05-02T15:31:41.430Z,44.42
2023-05-02T15:34:08.986Z,43.16
2023-05-02T15:36:37.476Z,41.72
2023-05-02T15:39:08.774Z,40.38
2023-05-02T15:41:37.208Z,41.89
2023-05-02T15:44:04.871Z,43.37
2023-05-02T15:46:32.192Z,40.03
2023-05-02T15:48:59.496Z,40.54
2023-05-02T15:51:26.876Z,38.16
2023-05-02T15:53:54.489Z,37.11
2023-05-02T15:56:21.972Z,38.74
2023-05-02T15:58:49.246Z,36.06
2023-05-02T16:01:16.728Z,38.76
2023-05-02T16:03:43.999Z,38.03
2023-05-02T16:06:11.320Z,39.19
2023-05-02T16:08:38.558Z,39.28
2023-05-02T16:11:05.761Z,40.18
2023-05-02T16:13:33.070Z,40.53
2023-05-02T16:16:00.322Z,37.58
2023-05-02T16:18:31.176Z,39.09
2023-05-02T16:20:58.394Z,36.14
2023-05-02T16:23:26.379Z,36.65
2023-05-02T16:26:02.892Z,38.40
2023-05-02T16:28:30.758Z,38.04
2023-05-02T16:30:57.916Z,35.69
2023-05-02T16:33:25.018Z,35.71
2023-05-02T16:36:05.030Z,34.02
2023-05-02T16:38:32.839Z,32.83
2023-05-02T16:41:05.608Z,33.48
2023-05-02T16:43:33.328Z,36.17
2023-05-02T16:46:03.341Z,33.35
2023-05-02T16:48:30.762Z,34.49
2023-05-02T16:50:58.377Z,37.50
2023-05-02T16:53:26.540Z,38.28
2023-05-02T16:55:54.654Z,39.51
2023-05-02T16:58:21.825Z,40.09
2023-05-02T17:00:49.018Z,39.16
2023-05-02T17:03:16.685Z,41.16
2023-05-02T17:05:43.845Z,36.72
2023-05-02T17:08:11.119Z,37.47
2023-05-02T17:10:38.279Z,40.36
2023-05-02T17:13:06.650Z,37.15
2023-05-02T17:15:38.495Z,37.68
2023-05-02T17:18:05.929Z,37.36
2023-05-02T17:20:33.393Z,38.08
2023-05-02T17:23:02.200Z,39.27
2023-05-02T17:25:30.436Z,39.29
2023-05-02T17:27:57.604Z,37.99
2023-05-02T17:30:25.187Z,38.33
2023-05-02T17:32:52.505Z,40.20
2023-05-02T17:35:19.644Z,40.57
2023-05-02T17:37:46.788Z,38.80
2023-05-02T17:40:17.166Z,37.94
2023-05-02T17:42:47.337Z,38.85
2023-05-02T17:45:15.151Z,38.46
2023-05-02T17:47:42.414Z,39.23
2023-05-02T17:50:10.166Z,38.33
2023-05-02T17:52:38.661Z,38.82
2023-05-02T17:55:07.080Z,39.00
2023-05-02T17:57:34.353Z,39.11
2023-05-02T18:00:04.217Z,39.08
2023-05-02T18:02:31.819Z,38.58
2023-05-02T18:07:29.891Z,39.24
2023-05-02T18:09:57.307Z,38.68
2023-05-02T18:12:24.504Z,38.62
2023-05-02T18:14:52.546Z,38.81
2023-05-02T18:17:20.847Z,38.50
2023-05-02T18:19:50.975Z,39.37
2023-05-02T18:22:21.199Z,40.98
2023-05-02T18:24:49.817Z,40.29
2023-05-02T18:27:17.733Z,42.28
2023-05-02T18:29:45.886Z,43.64
2023-05-02T18:32:14.380Z,41.61
2023-05-02T18:34:41.525Z,40.50
2023-05-02T18:37:09.063Z,42.07
2023-05-02T18:39:36.848Z,41.64
2023-05-02T18:42:04.875Z,41.34
2023-05-02T18:44:32.465Z,42.33
2023-05-02T18:46:59.626Z,42.04
2023-05-02T18:49:26.945Z,41.08
2023-05-02T18:51:54.678Z,40.54
2023-05-02T18:54:23.196Z,40.79
2023-05-02T18:56:50.358Z,41.22
2023-05-02T18:59:18.869Z,42.09
2023-05-02T19:01:48.585Z,41.04
2023-05-02T19:04:16.236Z,42.95
2023-05-02T19:06:43.449Z,42.64
2023-05-02T19:09:13.145Z,40.85
2023-05-02T19:11:41.277Z,41.13
2023-05-02T19:14:08.774Z,42.71
2023-05-02T19:16:38.009Z,43.03
2023-05-02T19:19:05.467Z,43.58
2023-05-02T19:21:34.111Z,41.98
2023-05-02T19:24:01.791Z,42.73
2023-05-02T19:26:28.909Z,41.62
2023-05-02T19:28:56.964Z,41.41
2023-05-02T19:31:28.113Z,40.30
2023-05-02T19:33:58.258Z,40.35
2023-05-02T19:36:27.403Z,42.61
2023-05-02T19:38:58.310Z,41.36
2023-05-02T19:41:25.920Z,43.81
2023-05-02T19:43:53.469Z,42.06
2023-05-02T19:46:23.882Z,41.91
2023-05-02T19:48:51.133Z,41.30
2023-05-02T19:51:25.249Z,42.11
2023-05-02T19:53:54.985Z,41.66
2023-05-02T19:56:25.286Z,42.62
2023-05-02T19:58:53.291Z,41.17
2023-05-02T20:01:20.889Z,42.05
2023-05-02T20:03:48.214Z,42.08
2023-05-02T20:06:15.546Z,42.26
2023-05-02T20:08:42.616Z,42.49
2023-05-02T20:11:09.805Z,41.42
2023-05-02T20:13:37.421Z,42.32
2023-05-02T20:16:05.216Z,42.01
2023-05-02T20:18:32.340Z,42.70
2023-05-02T20:20:59.518Z,40.86
2023-05-02T20:23:26.759Z,42.19
2023-05-02T20:25:53.925Z,42.26
2023-05-02T20:28:21.052Z,41.71
2023-05-02T20:30:50.939Z,42.32
2023-05-02T20:33:18.779Z,42.39
2023-05-02T20:35:45.966Z,41.68
2023-05-02T20:38:13.109Z,41.90
2023-05-02T20:40:42.484Z,42.48
2023-05-02T20:43:12.399Z,43.04
2023-05-02T20:45:40.054Z,42.34
2023-05-02T20:48:07.334Z,42.61
2023-05-02T20:50:34.561Z,42.32
2023-05-02T20:53:01.701Z,43.28
2023-05-02T20:55:29.061Z,41.62
2023-05-02T20:57:56.493Z,42.64
2023-05-02T21:00:23.585Z,44.84
2023-05-02T21:02:51.080Z,42.80
2023-05-02T21:05:18.324Z,43.46
2023-05-02T21:07:48.407Z,42.55
2023-05-02T21:10:18.274Z,43.28
2023-05-02T21:12:48.291Z,43.47
2023-05-02T21:15:20.484Z,45.16
2023-05-02T21:17:48.999Z,45.15
2023-05-02T21:20:16.171Z,44.18
2023-05-02T21:22:43.416Z,45.15
2023-05-02T21:25:10.892Z,45.00
2023-05-02T21:27:38.062Z,45.11
2023-05-02T21:30:06.168Z,45.13
2023-05-02T21:32:38.010Z,45.75
2023-05-02T21:35:06.074Z,45.50
2023-05-02T21:37:33.157Z,45.03
2023-05-02T21:40:00.719Z,44.27
2023-05-02T21:42:29.092Z,46.32
2023-05-02T21:44:56.182Z,45.89
2023-05-02T21:47:23.366Z,45.84
2023-05-02T21:49:51.643Z,45.48
2023-05-02T21:52:18.850Z,44.92
2023-05-02T21:54:49.850Z,44.50
2023-05-02T21:57:17.065Z,45.73
2023-05-02T21:59:46.744Z,45.55
2023-05-02T22:02:16.616Z,46.63
2023-05-02T22:04:47.436Z,45.66
2023-05-02T22:07:17.840Z,45.46
2023-05-02T22:09:45.184Z,47.05
2023-05-02T22:12:12.382Z,45.21
2023-05-02T22:14:45.295Z,45.86
2023-05-02T22:17:15.812Z,46.36
2023-05-02T22:19:49.742Z,46.55
2023-05-02T22:22:16.881Z,47.03
2023-05-02T22:24:44.013Z,47.14
2023-05-02T22:27:11.139Z,46.48
2023-05-02T22:29:38.906Z,47.59
2023-05-02T22:32:06.166Z,48.05
2023-05-02T22:34:33.295Z,47.02
2023-05-02T22:37:00.386Z,46.48
2023-05-02T22:39:29.559Z,46.09
2023-05-02T22:41:57.125Z,47.22
2023-05-02T22:44:24.241Z,47.21
2023-05-02T22:46:51.695Z,47.26
2023-05-02T22:49:19.712Z,46.29
2023-05-02T22:51:48.012Z,45.33
2023-05-02T22:54:16.745Z,44.61
2023-05-02T22:56:44.151Z,44.38
2023-05-02T22:59:11.229Z,44.92
2023-05-02T23:01:38.336Z,46.18
2023-05-02T23:04:05.549Z,46.43
2023-05-02T23:06:37.383Z,46.52
2023-05-02T23:09:06.244Z,47.28
2023-05-02T23:11:33.293Z,46.41
2023-05-02T23:14:03.214Z,47.43
2023-05-02T23:16:30.459Z,46.34
2023-05-02T23:18:57.546Z,47.53
2023-05-02T23:21:24.688Z,46.86
2023-05-02T23:23:51.841Z,47.08
2023-05-02T23:26:18.878Z,46.37
2023-05-02T23:28:46.015Z,47.86
2023-05-02T23:31:14.706Z,46.40
2023-05-02T23:33:42.290Z,47.24
2023-05-02T23:36:09.988Z,47.43
2023-05-02T23:38:37.246Z,47.87
2023-05-02T23:41:04.755Z,47.41
2023-05-02T23:43:34.993Z,46.66
2023-05-02T23:46:05.122Z,46.99
2023-05-02T23:48:32.301Z,48.22
2023-05-02T23:50:59.935Z,48.51
2023-05-02T23:53:27.094Z,47.50
2023-05-02T23:55:54.808Z,46.55
2023-05-02T23:58:21.919Z,47.74
